KFDK/FDK METAR and TAF weather

Enter ICAO airport designator
Station Type Date Time Source
KFDK METAR 2022/01/29 01:47 UTC NOAA

KFDK 290147Z 01005KT 2SM -SN BKN007 OVC018 00/00 A3000


Station Type Date Time Source
KFDK Decoded METAR 2022/01/29 01:47 UTC NOAA

Frederick, Frederick Municipal Airport, MD, United States (KFDK) 39-25-03N 077-22-28W
Jan 28, 2022 - 08:47 PM EST / 2022.01.29 0147 UTC
Wind: from the N (010 degrees) at 6 MPH (5 KT):0
Visibility: 2 mile(s):0
Sky conditions: overcast
Weather: light snow
Temperature: 32 F (0 C)
Windchill: 26 F (-3 C):1
Dew Point: 32 F (0 C)
Relative Humidity: 100%
Pressure (altimeter): 30 in. Hg (1015 hPa)
ob: KFDK 290147Z 01005KT 2SM -SN BKN007 OVC018 00/00 A3000
cycle: 2

Station Type Date Time Source
KFDK TAF UTC NOAA

Error!

Example: see airport list